Time;durP1;ratioP1;P1;durP2;ratioP2;P2;SDS_P1;SDS_P2;PMS_P1;PMS_P2;Temp;Humidity;BMP_temperature;BMP_pressure;BME280_temperature;BME280_humidity;BME280_pressure;Samples;Min_cycle;Max_cycle;Signal;HPM_P1;HPM_P2
2023/05/28 00:00:37;;;;;;;8.60;3.55;;;16.70;87.10;;;;;;5080960;28;20069;-83
2023/05/28 00:03:03;;;;;;;7.32;3.60;;;16.60;87.40;;;;;;5096649;28;20028;-83
2023/05/28 00:05:31;;;;;;;7.35;4.32;;;16.60;87.60;;;;;;5062023;28;20085;-84
2023/05/28 00:08:00;;;;;;;5.88;3.75;;;16.50;87.80;;;;;;5077989;28;20035;-83
2023/05/28 00:10:26;;;;;;;7.55;3.70;;;16.40;87.90;;;;;;5078770;28;20119;-83
2023/05/28 00:12:51;;;;;;;6.18;3.25;;;16.40;88.20;;;;;;5096076;28;20051;-83
2023/05/28 00:15:17;;;;;;;7.43;3.70;;;16.40;88.40;;;;;;5091416;28;20110;-83
2023/05/28 00:17:46;;;;;;;7.18;3.50;;;16.30;88.20;;;;;;5098454;28;20383;-84
2023/05/28 00:20:11;;;;;;;5.50;3.20;;;16.30;88.10;;;;;;5094040;28;20028;-83
2023/05/28 00:22:37;;;;;;;8.07;3.88;;;16.30;88.30;;;;;;5099120;28;20424;-83
2023/05/28 00:25:04;;;;;;;8.70;3.60;;;16.20;88.30;;;;;;5081024;28;20027;-83
2023/05/28 00:27:29;;;;;;;6.97;3.60;;;16.20;88.10;;;;;;5098524;28;20498;-83
2023/05/28 00:29:55;;;;;;;9.90;4.38;;;16.20;88.00;;;;;;5098046;28;20042;-83
2023/05/28 00:32:21;;;;;;;6.63;3.75;;;16.10;87.90;;;;;;5081285;28;20076;-83
2023/05/28 00:34:46;;;;;;;8.95;4.05;;;16.10;87.80;;;;;;5098162;28;20053;-84
2023/05/28 00:37:12;;;;;;;7.78;4.28;;;16.10;87.80;;;;;;5097661;28;20112;-84
2023/05/28 00:39:37;;;;;;;7.70;4.50;;;16.10;87.90;;;;;;5098045;28;20031;-84
2023/05/28 00:42:04;;;;;;;9.13;4.38;;;16.00;88.10;;;;;;5097628;28;20031;-83
2023/05/28 00:44:33;;;;;;;7.45;5.00;;;16.00;88.30;;;;;;5080654;28;20023;-83
2023/05/28 00:47:00;;;;;;;9.60;4.78;;;16.00;88.40;;;;;;5097395;28;20074;-83
2023/05/28 00:49:27;;;;;;;8.23;4.30;;;16.00;88.60;;;;;;5097568;28;20032;-83
2023/05/28 00:51:54;;;;;;;9.18;4.68;;;16.00;88.80;;;;;;5077262;28;20085;-83
2023/05/28 00:54:21;;;;;;;8.90;4.50;;;15.90;89.10;;;;;;5077029;28;20126;-83
2023/05/28 00:56:48;;;;;;;10.25;3.90;;;15.90;89.20;;;;;;5077247;28;20028;-83
2023/05/28 00:59:13;;;;;;;7.18;4.63;;;15.90;89.50;;;;;;5093562;28;20486;-83
2023/05/28 01:01:39;;;;;;;8.98;4.85;;;15.80;89.70;;;;;;5079455;28;20032;-83
2023/05/28 01:04:05;;;;;;;9.30;4.93;;;15.80;90.10;;;;;;5109150;28;20027;-83
2023/05/28 01:06:31;;;;;;;10.60;5.18;;;15.80;90.20;;;;;;5102647;28;20044;-83
2023/05/28 01:08:57;;;;;;;10.00;5.22;;;15.80;90.30;;;;;;5097287;28;20032;-84
2023/05/28 01:11:24;;;;;;;9.13;4.93;;;15.80;90.40;;;;;;5081552;28;20028;-83
2023/05/28 01:13:51;;;;;;;12.50;5.43;;;15.70;90.50;;;;;;5078744;28;20037;-83
2023/05/28 01:16:17;;;;;;;15.00;6.18;;;15.70;90.60;;;;;;5072201;28;20040;-83
2023/05/28 01:18:47;;;;;;;12.48;5.15;;;15.60;90.90;;;;;;5087415;28;20027;-84
2023/05/28 01:21:14;;;;;;;9.75;5.60;;;15.60;91.00;;;;;;5097774;28;20073;-84
2023/05/28 01:23:44;;;;;;;13.52;5.15;;;15.60;91.10;;;;;;5096901;28;20035;-81
2023/05/28 01:26:12;;;;;;;10.07;5.40;;;15.50;91.10;;;;;;5096970;28;20027;-83
2023/05/28 01:28:44;;;;;;;10.63;5.30;;;15.60;91.10;;;;;;5115498;28;20030;-84
2023/05/28 01:31:11;;;;;;;12.35;5.85;;;15.50;91.30;;;;;;5090931;28;20123;-83
2023/05/28 01:33:38;;;;;;;11.05;5.10;;;15.50;91.40;;;;;;5107908;28;20015;-83
2023/05/28 01:36:07;;;;;;;11.63;4.93;;;15.50;91.50;;;;;;5122449;28;20069;-82
2023/05/28 01:38:38;;;;;;;11.80;5.68;;;15.50;91.70;;;;;;5111070;28;20035;-83
2023/05/28 01:41:04;;;;;;;11.30;5.45;;;15.50;91.90;;;;;;5092153;28;20055;-83
2023/05/28 01:43:30;;;;;;;14.15;6.22;;;15.50;92.10;;;;;;5111629;28;20032;-84
2023/05/28 01:45:56;;;;;;;14.30;5.75;;;15.40;92.20;;;;;;5093660;28;20048;-84
2023/05/28 01:48:23;;;;;;;12.65;5.65;;;15.40;92.30;;;;;;5080092;28;20463;-84
2023/05/28 01:50:49;;;;;;;11.55;5.60;;;15.40;92.40;;;;;;5096745;28;20035;-84
2023/05/28 01:53:14;;;;;;;10.18;5.03;;;15.40;92.50;;;;;;5096335;28;20026;-84
2023/05/28 01:55:40;;;;;;;11.02;5.65;;;15.40;92.50;;;;;;5079583;28;20032;-84
2023/05/28 01:58:08;;;;;;;12.70;5.10;;;15.40;92.60;;;;;;5096012;28;20023;-82
2023/05/28 02:00:41;;;;;;;12.90;5.55;;;15.40;92.60;;;;;;5096477;28;20027;-84
2023/05/28 02:03:11;;;;;;;10.98;5.45;;;15.40;92.70;;;;;;5114558;28;20141;-84
2023/05/28 02:05:37;;;;;;;10.68;5.60;;;15.40;92.70;;;;;;5097174;28;20028;-84
2023/05/28 02:08:02;;;;;;;10.25;5.65;;;15.40;92.80;;;;;;5091421;28;20036;-84
2023/05/28 02:10:28;;;;;;;17.02;6.53;;;15.40;92.90;;;;;;5092488;28;20109;-84
2023/05/28 02:12:54;;;;;;;10.55;5.80;;;15.40;93.00;;;;;;5079293;28;20027;-84
2023/05/28 02:15:21;;;;;;;11.45;5.57;;;15.30;93.00;;;;;;5067791;28;20051;-84
2023/05/28 02:17:47;;;;;;;13.65;6.03;;;15.30;93.10;;;;;;5063490;28;20023;-84
2023/05/28 02:20:13;;;;;;;10.60;5.68;;;15.30;93.20;;;;;;5096100;28;20073;-84
2023/05/28 02:22:38;;;;;;;8.32;5.20;;;15.30;93.30;;;;;;5079138;28;20031;-84
2023/05/28 02:25:05;;;;;;;11.32;6.03;;;15.30;93.40;;;;;;5114526;28;20020;-84
2023/05/28 02:27:30;;;;;;;12.35;6.22;;;15.20;93.40;;;;;;5095714;28;20036;-84
2023/05/28 02:29:56;;;;;;;13.05;6.45;;;15.20;93.50;;;;;;5079933;28;20046;-84
2023/05/28 02:32:22;;;;;;;13.65;6.65;;;15.10;93.60;;;;;;5093328;28;20076;-84
2023/05/28 02:34:48;;;;;;;13.18;6.10;;;15.10;93.90;;;;;;5078702;28;20467;-84
2023/05/28 02:37:14;;;;;;;12.88;6.15;;;15.10;93.70;;;;;;5095646;28;20075;-84
2023/05/28 02:39:40;;;;;;;14.57;6.60;;;15.10;93.80;;;;;;5096013;28;20089;-84
2023/05/28 02:42:05;;;;;;;11.82;5.68;;;15.10;93.80;;;;;;5091512;28;20460;-83
2023/05/28 02:44:31;;;;;;;12.68;5.88;;;15.10;93.80;;;;;;5080130;28;20122;-84
2023/05/28 02:46:57;;;;;;;12.32;6.10;;;15.10;93.90;;;;;;5078798;28;20479;-84
2023/05/28 02:49:22;;;;;;;10.48;5.65;;;15.00;93.90;;;;;;5075439;28;20376;-84
2023/05/28 02:51:48;;;;;;;12.60;5.88;;;15.00;93.90;;;;;;5075532;28;20141;-84
2023/05/28 02:54:14;;;;;;;10.93;5.82;;;15.00;93.90;;;;;;5115670;28;20471;-84
2023/05/28 02:56:39;;;;;;;12.00;5.65;;;15.00;94.00;;;;;;5066607;28;20506;-84
2023/05/28 02:59:05;;;;;;;9.75;5.40;;;15.00;94.00;;;;;;5073532;28;20031;-84
2023/05/28 03:01:31;;;;;;;11.77;6.13;;;15.00;94.00;;;;;;5078667;28;20028;-84
2023/05/28 03:03:56;;;;;;;10.95;5.15;;;15.00;94.00;;;;;;5087460;28;20024;-84
2023/05/28 03:06:22;;;;;;;14.55;5.97;;;14.90;94.00;;;;;;5090694;28;20028;-84
2023/05/28 03:08:48;;;;;;;9.40;5.28;;;14.90;94.10;;;;;;5096027;28;20038;-84
2023/05/28 03:11:14;;;;;;;11.38;5.85;;;14.90;94.10;;;;;;5079537;28;20024;-83
2023/05/28 03:13:39;;;;;;;10.43;5.68;;;14.80;94.20;;;;;;5108572;28;20031;-83
2023/05/28 03:16:06;;;;;;;14.55;6.18;;;14.80;94.20;;;;;;5100001;28;20027;-83
2023/05/28 03:18:31;;;;;;;14.13;6.60;;;14.70;94.30;;;;;;5117180;28;20025;-82
2023/05/28 03:20:57;;;;;;;9.82;5.95;;;14.70;94.40;;;;;;5115147;28;20082;-82
2023/05/28 03:23:23;;;;;;;10.25;5.55;;;14.60;94.50;;;;;;5114016;28;20020;-83
2023/05/28 03:25:48;;;;;;;13.57;6.03;;;14.60;94.60;;;;;;5078451;28;20028;-84
2023/05/28 03:28:14;;;;;;;14.27;6.57;;;14.60;94.60;;;;;;5094498;28;20020;-83
2023/05/28 03:30:39;;;;;;;13.05;6.35;;;14.50;94.70;;;;;;5095693;28;20040;-84
2023/05/28 03:33:05;;;;;;;12.25;6.40;;;14.50;94.70;;;;;;5096031;28;20032;-84
2023/05/28 03:35:31;;;;;;;11.95;5.97;;;14.50;94.80;;;;;;5078798;28;20033;-83
2023/05/28 03:37:56;;;;;;;11.60;6.38;;;14.50;94.90;;;;;;5112749;28;20035;-84
2023/05/28 03:40:22;;;;;;;13.32;5.65;;;14.50;94.90;;;;;;5095565;28;20040;-83
2023/05/28 03:42:48;;;;;;;10.10;5.50;;;14.50;94.90;;;;;;5112939;28;20021;-84
2023/05/28 03:45:14;;;;;;;12.40;6.05;;;14.50;95.00;;;;;;5096023;28;20035;-84
2023/05/28 03:47:39;;;;;;;11.00;5.93;;;14.50;95.00;;;;;;5077945;28;20052;-83
2023/05/28 03:50:06;;;;;;;14.38;5.90;;;14.50;95.10;;;;;;5125351;27;20379;-84
2023/05/28 03:52:31;;;;;;;11.85;5.55;;;14.50;95.10;;;;;;5082037;28;20024;-83
2023/05/28 03:54:57;;;;;;;11.07;5.95;;;14.50;95.00;;;;;;5097855;28;20016;-83
2023/05/28 03:57:24;;;;;;;13.25;6.43;;;14.50;95.10;;;;;;5094846;28;20028;-84
2023/05/28 03:59:49;;;;;;;13.70;6.20;;;14.60;95.10;;;;;;5061820;28;20502;-84
2023/05/28 04:02:15;;;;;;;10.02;5.85;;;14.50;95.10;;;;;;5067231;28;20028;-84
2023/05/28 04:04:40;;;;;;;14.18;6.53;;;14.50;95.20;;;;;;5098601;28;20486;-84
2023/05/28 04:07:07;;;;;;;13.02;6.18;;;14.60;95.30;;;;;;5081696;28;20565;-84
2023/05/28 04:09:32;;;;;;;15.02;6.25;;;14.50;95.40;;;;;;5081290;28;20031;-84
2023/05/28 04:11:58;;;;;;;13.43;6.07;;;14.50;95.40;;;;;;5098439;28;20356;-82
2023/05/28 04:14:25;;;;;;;13.15;6.35;;;14.60;95.50;;;;;;5078218;28;20475;-84
2023/05/28 04:16:51;;;;;;;10.88;5.70;;;14.60;95.50;;;;;;5061198;28;20047;-83
2023/05/28 04:19:16;;;;;;;13.38;6.03;;;14.60;95.50;;;;;;5094999;28;20020;-82
2023/05/28 04:21:42;;;;;;;11.10;6.60;;;14.60;95.50;;;;;;5065585;28;20030;-82
2023/05/28 04:24:08;;;;;;;13.20;5.97;;;14.70;95.60;;;;;;5081487;28;20431;-82
2023/05/28 04:26:34;;;;;;;11.38;5.70;;;14.70;95.60;;;;;;5098006;28;20051;-82
2023/05/28 04:28:59;;;;;;;11.27;5.93;;;14.70;95.60;;;;;;5081457;28;20020;-82
2023/05/28 04:31:27;;;;;;;14.35;7.00;;;14.70;95.70;;;;;;5077407;28;20114;-83
2023/05/28 04:33:53;;;;;;;15.13;6.80;;;14.70;95.70;;;;;;5089269;28;20031;-83
2023/05/28 04:36:20;;;;;;;15.63;7.03;;;14.80;95.80;;;;;;5097913;28;20092;-83
2023/05/28 04:38:46;;;;;;;10.00;6.22;;;14.80;95.80;;;;;;5097405;28;20019;-82
2023/05/28 04:41:14;;;;;;;16.35;6.22;;;14.80;95.80;;;;;;5071573;28;20024;-82
2023/05/28 04:43:41;;;;;;;15.30;6.43;;;14.90;95.80;;;;;;5095871;28;20023;-82
2023/05/28 04:46:08;;;;;;;11.63;5.68;;;14.90;95.80;;;;;;5061097;28;20047;-82
2023/05/28 04:48:35;;;;;;;11.70;5.60;;;15.00;95.80;;;;;;5098795;28;20024;-82
2023/05/28 04:51:03;;;;;;;13.63;6.55;;;15.00;95.80;;;;;;5096048;28;20020;-82
2023/05/28 04:53:29;;;;;;;11.38;6.03;;;15.00;95.80;;;;;;5096382;28;20024;-82
2023/05/28 04:55:55;;;;;;;10.55;5.45;;;15.10;95.80;;;;;;5101759;28;20558;-81
2023/05/28 04:58:21;;;;;;;11.60;6.13;;;15.20;95.80;;;;;;5099030;28;20035;-82
2023/05/28 05:00:47;;;;;;;14.60;6.63;;;15.20;95.80;;;;;;5097152;28;20027;-82
2023/05/28 05:03:14;;;;;;;14.15;6.30;;;15.20;95.80;;;;;;5127961;28;20516;-82
2023/05/28 05:05:40;;;;;;;14.45;6.45;;;15.10;95.80;;;;;;5075922;28;20431;-82
2023/05/28 05:08:06;;;;;;;11.93;5.75;;;15.10;95.90;;;;;;5111807;28;20116;-82
2023/05/28 05:10:32;;;;;;;12.57;6.53;;;15.10;95.90;;;;;;5110775;28;20016;-84
2023/05/28 05:12:59;;;;;;;13.10;6.35;;;15.10;95.80;;;;;;5110712;28;20070;-83
2023/05/28 05:15:26;;;;;;;14.02;6.72;;;15.00;95.90;;;;;;5115700;28;20119;-83
2023/05/28 05:17:52;;;;;;;13.25;6.90;;;15.10;95.80;;;;;;5096950;28;20019;-83
2023/05/28 05:20:17;;;;;;;13.23;7.35;;;15.00;95.90;;;;;;5097485;28;20131;-84
2023/05/28 05:22:43;;;;;;;12.88;7.13;;;15.00;96.00;;;;;;5114576;28;20111;-83
2023/05/28 05:25:09;;;;;;;15.93;7.53;;;15.00;96.00;;;;;;5097148;28;20024;-82
2023/05/28 05:27:36;;;;;;;18.95;7.57;;;15.10;96.10;;;;;;5079933;28;20425;-82
2023/05/28 05:30:05;;;;;;;12.18;5.95;;;15.10;96.10;;;;;;5094658;28;20059;-83
2023/05/28 05:32:31;;;;;;;13.55;6.63;;;15.20;96.00;;;;;;5077124;28;20032;-82
2023/05/28 05:34:56;;;;;;;13.75;6.55;;;15.20;96.00;;;;;;5059737;28;20032;-82
2023/05/28 05:37:23;;;;;;;12.90;6.07;;;15.20;96.00;;;;;;5096601;28;20043;-83
2023/05/28 05:39:49;;;;;;;12.57;6.15;;;15.30;96.00;;;;;;5079984;28;20031;-82
2023/05/28 05:42:14;;;;;;;13.02;6.72;;;15.30;96.00;;;;;;5115171;28;20015;-82
2023/05/28 05:44:40;;;;;;;11.00;5.93;;;15.40;96.00;;;;;;5096338;28;20051;-82
2023/05/28 05:47:06;;;;;;;12.48;6.28;;;15.40;95.90;;;;;;5079788;28;20399;-82
2023/05/28 05:49:32;;;;;;;13.57;6.78;;;15.40;95.90;;;;;;5079647;28;20387;-82
2023/05/28 05:51:57;;;;;;;14.10;6.60;;;15.40;95.90;;;;;;5095739;28;20032;-82
2023/05/28 05:54:23;;;;;;;16.00;7.00;;;15.40;95.90;;;;;;5096761;28;20039;-83
2023/05/28 05:56:48;;;;;;;14.10;6.80;;;15.40;96.00;;;;;;5106403;28;20040;-82
2023/05/28 05:59:14;;;;;;;15.60;7.40;;;15.40;95.90;;;;;;5061673;28;20024;-82
2023/05/28 06:01:40;;;;;;;15.13;6.70;;;15.40;96.00;;;;;;5075712;28;20029;-82
2023/05/28 06:04:06;;;;;;;12.00;6.63;;;15.50;96.00;;;;;;5076600;28;20024;-83
2023/05/28 06:06:31;;;;;;;12.25;6.50;;;15.60;95.90;;;;;;5069585;28;20487;-84
2023/05/28 06:08:57;;;;;;;12.00;6.05;;;15.60;95.90;;;;;;5079265;28;20123;-83
2023/05/28 06:11:23;;;;;;;12.27;6.50;;;15.70;95.80;;;;;;5063214;28;20111;-83
2023/05/28 06:13:50;;;;;;;13.00;6.72;;;15.80;95.80;;;;;;5114156;28;20031;-83
2023/05/28 06:16:16;;;;;;;13.98;7.07;;;15.80;95.70;;;;;;5079332;28;20038;-84
2023/05/28 06:18:41;;;;;;;12.05;6.40;;;15.90;95.70;;;;;;5114382;28;20397;-83
2023/05/28 06:21:10;;;;;;;14.20;6.78;;;15.90;95.60;;;;;;5079158;28;20031;-83
2023/05/28 06:23:36;;;;;;;16.20;7.63;;;15.90;95.60;;;;;;5095747;28;20110;-81
2023/05/28 06:26:03;;;;;;;10.77;5.88;;;15.90;95.60;;;;;;5079435;28;20051;-83
2023/05/28 06:28:29;;;;;;;12.95;5.55;;;16.00;95.60;;;;;;5096732;28;20031;-82
2023/05/28 06:30:54;;;;;;;12.15;5.93;;;16.10;95.60;;;;;;5088071;28;20379;-84
2023/05/28 06:33:20;;;;;;;10.02;6.13;;;16.10;95.50;;;;;;5087966;28;20036;-84
2023/05/28 06:35:46;;;;;;;13.30;6.28;;;16.20;95.40;;;;;;5086635;28;20039;-83
2023/05/28 06:38:11;;;;;;;12.32;6.55;;;16.30;95.40;;;;;;5122226;27;20024;-83
2023/05/28 06:40:37;;;;;;;11.25;6.90;;;16.30;95.30;;;;;;5076730;28;20460;-83
2023/05/28 06:43:03;;;;;;;14.27;7.22;;;16.20;95.10;;;;;;5121000;28;20045;-83
2023/05/28 06:45:29;;;;;;;10.85;5.80;;;16.20;95.40;;;;;;5094477;28;20029;-82
2023/05/28 06:47:54;;;;;;;12.70;6.13;;;16.30;95.20;;;;;;5105643;28;20428;-82
2023/05/28 06:50:20;;;;;;;11.18;6.30;;;16.30;95.10;;;;;;5088978;28;20483;-84
2023/05/28 06:52:46;;;;;;;11.20;5.97;;;16.40;95.00;;;;;;5077224;28;20539;-83
2023/05/28 06:55:11;;;;;;;10.52;5.22;;;16.40;95.00;;;;;;5090027;28;20024;-85
2023/05/28 06:57:37;;;;;;;9.65;6.00;;;16.40;94.90;;;;;;5078400;28;20056;-84
2023/05/28 07:00:13;;;;;;;11.85;6.35;;;16.50;94.90;;;;;;5102297;28;20475;-84
2023/05/28 07:02:39;;;;;;;9.68;5.78;;;16.50;94.90;;;;;;5074354;28;20016;-84
2023/05/28 07:05:05;;;;;;;11.73;5.93;;;16.50;94.90;;;;;;5076108;28;20025;-84
2023/05/28 07:07:33;;;;;;;13.45;6.35;;;16.50;94.90;;;;;;5075816;28;20036;-84
2023/05/28 07:09:59;;;;;;;11.15;5.93;;;16.60;94.90;;;;;;5059161;28;20115;-84
2023/05/28 07:12:25;;;;;;;11.00;5.65;;;16.60;94.90;;;;;;5089662;28;20116;-84
2023/05/28 07:14:50;;;;;;;12.95;6.30;;;16.60;95.00;;;;;;5059084;28;20032;-84
2023/05/28 07:17:16;;;;;;;10.63;6.40;;;16.70;94.90;;;;;;5092844;28;20440;-84
2023/05/28 07:19:42;;;;;;;11.25;5.60;;;16.70;95.00;;;;;;5089528;28;20028;-75
2023/05/28 07:22:07;;;;;;;10.93;5.80;;;16.70;95.00;;;;;;5095821;28;20063;-76
2023/05/28 07:24:33;;;;;;;10.73;5.68;;;16.80;95.00;;;;;;5097330;28;20027;-76
2023/05/28 07:26:59;;;;;;;11.45;5.82;;;16.80;95.00;;;;;;5095648;28;20032;-76
2023/05/28 07:29:26;;;;;;;9.95;5.22;;;16.90;95.00;;;;;;5096837;28;20078;-77
2023/05/28 07:31:52;;;;;;;12.18;6.28;;;17.00;95.00;;;;;;5089138;28;20411;-76
2023/05/28 07:34:18;;;;;;;15.35;6.25;;;17.10;94.90;;;;;;5087716;28;20057;-77
2023/05/28 07:36:43;;;;;;;9.50;5.13;;;17.20;94.90;;;;;;5090764;28;20551;-77
2023/05/28 07:39:10;;;;;;;10.88;5.85;;;17.30;94.80;;;;;;5075182;28;20078;-76
2023/05/28 07:41:35;;;;;;;13.02;6.20;;;17.40;94.70;;;;;;5075531;28;20032;-77
2023/05/28 07:44:02;;;;;;;9.63;4.90;;;17.50;94.70;;;;;;5075718;28;20155;-77
2023/05/28 07:46:27;;;;;;;13.27;5.43;;;17.60;94.60;;;;;;5101648;28;20056;-76
2023/05/28 07:48:53;;;;;;;10.35;5.43;;;17.70;94.50;;;;;;5056253;28;20406;-76
2023/05/28 07:51:19;;;;;;;9.85;4.88;;;17.80;94.40;;;;;;5059271;28;20032;-76
2023/05/28 07:53:44;;;;;;;11.60;5.13;;;17.90;94.20;;;;;;5075076;28;20379;-76
2023/05/28 07:56:10;;;;;;;10.20;5.32;;;18.00;94.00;;;;;;5075095;28;20076;-76
2023/05/28 07:58:36;;;;;;;9.07;4.57;;;18.10;93.60;;;;;;5075028;28;20388;-76
2023/05/28 08:01:01;;;;;;;9.73;4.90;;;18.20;93.00;;;;;;5058295;28;20025;-76
2023/05/28 08:03:27;;;;;;;10.73;4.28;;;18.20;93.00;;;;;;5074897;28;20028;-76
2023/05/28 08:05:56;;;;;;;11.13;4.43;;;18.30;92.80;;;;;;5076283;28;20033;-77
2023/05/28 08:08:22;;;;;;;8.77;4.28;;;18.40;92.70;;;;;;5058306;28;20029;-80
2023/05/28 08:10:48;;;;;;;8.60;4.40;;;18.50;92.60;;;;;;5076180;28;20021;-79
2023/05/28 08:13:13;;;;;;;9.23;3.83;;;18.60;92.60;;;;;;5074382;28;20380;-79
2023/05/28 08:15:39;;;;;;;12.68;5.35;;;18.60;92.40;;;;;;5074758;28;20037;-80
2023/05/28 08:18:04;;;;;;;6.15;3.85;;;18.70;92.00;;;;;;5067031;28;20055;-80
2023/05/28 08:20:31;;;;;;;8.93;3.70;;;18.80;91.90;;;;;;5056024;28;20036;-79
2023/05/28 08:22:56;;;;;;;8.20;3.72;;;18.80;91.80;;;;;;5075065;28;20025;-80
2023/05/28 08:25:22;;;;;;;7.70;3.75;;;18.90;91.80;;;;;;5085100;28;20025;-80
2023/05/28 08:27:48;;;;;;;7.60;3.85;;;19.00;91.70;;;;;;5089994;28;20015;-80
2023/05/28 08:30:14;;;;;;;7.50;3.67;;;19.10;91.50;;;;;;5086887;28;20016;-79
2023/05/28 08:32:39;;;;;;;8.93;3.67;;;19.20;91.40;;;;;;5094007;28;20029;-80
2023/05/28 08:35:06;;;;;;;11.57;4.10;;;19.20;91.10;;;;;;5085845;28;20032;-78
2023/05/28 08:37:32;;;;;;;6.63;3.35;;;19.30;91.10;;;;;;5049108;28;20090;-78
2023/05/28 08:39:57;;;;;;;7.82;3.88;;;19.40;91.10;;;;;;5068689;28;20040;-80
2023/05/28 08:42:23;;;;;;;8.90;3.70;;;19.50;91.00;;;;;;5043158;28;20117;-79
2023/05/28 08:44:49;;;;;;;9.93;4.45;;;19.60;90.30;;;;;;5067024;28;20033;-80
2023/05/28 08:47:15;;;;;;;8.68;3.58;;;19.60;90.10;;;;;;5072925;28;20484;-83
2023/05/28 08:49:52;;;;;;;7.32;3.60;;;19.70;90.00;;;;;;5063977;28;20431;-83
2023/05/28 08:52:20;;;;;;;6.60;3.22;;;19.80;90.10;;;;;;5104269;28;20406;-83
2023/05/28 08:54:47;;;;;;;7.13;3.38;;;19.90;90.10;;;;;;5087020;28;20020;-83
2023/05/28 08:57:13;;;;;;;7.53;3.75;;;19.90;89.60;;;;;;5073588;28;20127;-83
2023/05/28 08:59:39;;;;;;;8.82;3.83;;;20.00;89.20;;;;;;5094117;28;20103;-83
2023/05/28 09:02:06;;;;;;;9.57;3.63;;;20.10;88.50;;;;;;5094107;28;20123;-83
2023/05/28 09:04:31;;;;;;;6.88;3.63;;;20.10;88.30;;;;;;5094843;28;20403;-83
2023/05/28 09:06:57;;;;;;;8.32;3.55;;;20.20;87.90;;;;;;5093524;28;20076;-82
2023/05/28 09:09:24;;;;;;;8.57;4.10;;;20.30;87.60;;;;;;5077116;28;20065;-83
2023/05/28 09:11:49;;;;;;;8.27;4.50;;;20.30;87.00;;;;;;5094113;28;20494;-83
2023/05/28 09:14:18;;;;;;;7.22;3.85;;;20.30;86.50;;;;;;5092675;28;20032;-83
2023/05/28 09:16:44;;;;;;;8.20;3.40;;;20.40;86.90;;;;;;5092425;28;20387;-84
2023/05/28 09:19:13;;;;;;;7.28;3.83;;;20.50;86.60;;;;;;5090900;28;20032;-84
2023/05/28 09:21:51;;;;;;;6.00;3.60;;;20.50;86.20;;;;;;5074617;28;20027;-84
2023/05/28 09:24:17;;;;;;;7.60;4.22;;;20.60;86.30;;;;;;5073184;28;20565;-84
2023/05/28 09:26:44;;;;;;;7.70;3.80;;;20.60;85.90;;;;;;5055883;28;20036;-85
2023/05/28 09:29:13;;;;;;;7.07;3.97;;;20.70;85.90;;;;;;5090037;28;20031;-84
2023/05/28 09:31:39;;;;;;;7.32;3.70;;;20.80;85.80;;;;;;5090135;28;20025;-84
2023/05/28 09:34:04;;;;;;;8.80;3.83;;;20.80;86.00;;;;;;5075189;28;20115;-84
2023/05/28 09:36:31;;;;;;;6.25;3.47;;;20.90;86.30;;;;;;5093355;28;20130;-84
2023/05/28 09:38:57;;;;;;;10.25;3.90;;;21.00;85.50;;;;;;5094791;28;20336;-84
2023/05/28 09:41:24;;;;;;;7.05;3.80;;;21.00;85.10;;;;;;5093394;28;20115;-84
2023/05/28 09:43:57;;;;;;;8.60;4.18;;;21.00;85.40;;;;;;5093294;28;20055;-84
2023/05/28 09:46:30;;;;;;;9.60;4.03;;;21.10;84.40;;;;;;5091466;28;20044;-84
2023/05/28 09:48:57;;;;;;;5.90;3.30;;;21.10;84.20;;;;;;5076390;28;20028;-84
2023/05/28 09:51:26;;;;;;;7.72;3.60;;;21.10;84.40;;;;;;5093109;28;20039;-84
2023/05/28 09:53:57;;;;;;;9.32;3.88;;;21.20;84.20;;;;;;5078496;28;20063;-85
2023/05/28 09:56:29;;;;;;;6.40;3.65;;;21.20;83.30;;;;;;5095676;28;20034;-84
2023/05/28 09:59:07;;;;;;;9.65;4.38;;;21.20;82.70;;;;;;5076191;28;20029;-84
2023/05/28 10:01:47;;;;;;;7.40;3.72;;;21.20;82.70;;;;;;5076277;28;20032;-85
2023/05/28 10:04:17;;;;;;;8.98;4.05;;;21.20;83.20;;;;;;5075825;28;20049;-84
2023/05/28 10:06:44;;;;;;;8.27;3.67;;;21.30;82.90;;;;;;5094230;28;20073;-84
2023/05/28 10:09:14;;;;;;;8.32;4.20;;;21.30;83.20;;;;;;5075865;28;20024;-83
2023/05/28 10:11:44;;;;;;;7.28;3.90;;;21.40;83.60;;;;;;5083186;28;20118;-84
2023/05/28 10:14:11;;;;;;;9.82;4.30;;;21.40;83.20;;;;;;5115279;28;20023;-84
2023/05/28 10:16:37;;;;;;;8.18;3.60;;;21.50;83.40;;;;;;5083960;28;20401;-83
2023/05/28 10:19:03;;;;;;;8.07;4.10;;;21.50;83.40;;;;;;5120348;28;20031;-83
2023/05/28 10:21:29;;;;;;;9.32;4.20;;;21.60;83.00;;;;;;5121383;28;20019;-83
2023/05/28 10:23:56;;;;;;;10.73;4.65;;;21.60;82.10;;;;;;5121484;28;20027;-83
2023/05/28 10:26:24;;;;;;;6.88;4.00;;;21.60;81.70;;;;;;5103949;28;20023;-83
2023/05/28 10:28:56;;;;;;;8.88;4.35;;;21.60;82.10;;;;;;5116783;28;20027;-84
2023/05/28 10:31:23;;;;;;;7.72;4.28;;;21.70;82.40;;;;;;5097881;28;20479;-84
2023/05/28 10:33:48;;;;;;;9.45;4.30;;;21.70;82.80;;;;;;5115034;28;20027;-84
2023/05/28 10:36:15;;;;;;;11.32;5.07;;;21.70;83.00;;;;;;5095711;28;20042;-84
2023/05/28 10:38:43;;;;;;;9.52;5.38;;;21.80;82.80;;;;;;5111713;28;20043;-83
2023/05/28 10:41:09;;;;;;;11.52;4.80;;;21.80;82.60;;;;;;5075869;28;20039;-83
2023/05/28 10:43:37;;;;;;;9.18;4.90;;;21.80;82.60;;;;;;5059835;28;20031;-83
2023/05/28 10:46:08;;;;;;;13.35;5.95;;;21.80;82.60;;;;;;5093390;28;20078;-84
2023/05/28 10:48:39;;;;;;;9.90;5.13;;;21.80;82.80;;;;;;5095920;28;20407;-84
2023/05/28 10:51:05;;;;;;;;;;;21.90;83.00;;;;;;5096494;28;20028;-84
2023/05/28 10:53:31;;;;;;;12.43;5.13;;;21.90;82.80;;;;;;5102294;28;20318;-83
2023/05/28 10:55:57;;;;;;;9.48;4.95;;;21.90;82.70;;;;;;5107978;28;20089;-84
2023/05/28 10:58:33;;;;;;;10.88;5.30;;;22.00;82.80;;;;;;5095397;28;20077;-84
2023/05/28 11:01:12;;;;;;;10.75;4.60;;;22.00;82.30;;;;;;5079889;28;20032;-83
2023/05/28 11:03:43;;;;;;;10.27;5.10;;;22.00;82.00;;;;;;5105777;28;20511;-83
2023/05/28 11:06:10;;;;;;;6.82;4.40;;;22.10;81.80;;;;;;5105776;28;20542;-83
2023/05/28 11:08:46;;;;;;;6.65;4.03;;;22.10;81.70;;;;;;5085836;28;20378;-83
2023/05/28 11:11:14;;;;;;;10.13;4.13;;;22.10;81.70;;;;;;5065140;28;20032;-83
2023/05/28 11:13:42;;;;;;;7.97;3.90;;;22.10;81.40;;;;;;5072550;28;20039;-80
2023/05/28 11:16:09;;;;;;;9.05;3.67;;;22.20;81.20;;;;;;5087680;28;20426;-79
2023/05/28 11:18:35;;;;;;;7.38;3.63;;;22.20;80.80;;;;;;5066577;28;20030;-81
2023/05/28 11:21:07;;;;;;;8.73;4.15;;;22.30;79.90;;;;;;5085476;28;20380;-80
2023/05/28 11:23:33;;;;;;;9.32;4.80;;;22.30;79.70;;;;;;5075737;28;20024;-79
2023/05/28 11:25:59;;;;;;;6.25;3.45;;;22.20;79.60;;;;;;5080686;28;20032;-84
2023/05/28 11:28:25;;;;;;;12.77;4.47;;;22.20;80.10;;;;;;5094999;28;20031;-85
2023/05/28 11:30:51;;;;;;;7.65;3.85;;;22.20;80.10;;;;;;5106356;28;20032;-85
2023/05/28 11:33:17;;;;;;;10.30;4.85;;;22.30;80.70;;;;;;5074640;28;20039;-85
2023/05/28 11:35:43;;;;;;;9.73;5.35;;;22.30;80.80;;;;;;5090066;28;20040;-84
2023/05/28 11:38:08;;;;;;;9.00;4.57;;;22.30;80.00;;;;;;5087519;28;20038;-85
2023/05/28 11:40:35;;;;;;;8.40;4.47;;;22.30;80.00;;;;;;5077871;28;20015;-85
2023/05/28 11:43:01;;;;;;;13.23;4.88;;;22.40;80.30;;;;;;5095583;28;20462;-85
2023/05/28 11:45:27;;;;;;;9.05;3.92;;;22.50;80.10;;;;;;5111134;28;20031;-86
2023/05/28 11:47:54;;;;;;;8.90;4.05;;;22.40;80.30;;;;;;5094746;28;20040;-86
2023/05/28 11:50:22;;;;;;;8.35;4.07;;;22.40;80.20;;;;;;5062388;28;20062;-85
2023/05/28 11:52:47;;;;;;;8.48;3.92;;;22.50;79.70;;;;;;5095295;28;20028;-86
2023/05/28 11:55:15;;;;;;;7.65;3.72;;;22.60;79.40;;;;;;5078663;28;20132;-85
2023/05/28 11:57:53;;;;;;;7.75;3.92;;;22.60;79.30;;;;;;5095638;28;20052;-85
2023/05/28 12:00:20;;;;;;;8.18;3.70;;;22.60;78.00;;;;;;5080140;28;20028;-85
2023/05/28 12:02:47;;;;;;;5.25;3.50;;;22.60;77.70;;;;;;5082192;28;20114;-85
2023/05/28 12:05:14;;;;;;;8.02;3.70;;;22.70;77.10;;;;;;5098961;28;20028;-85
2023/05/28 12:07:53;;;;;;;7.25;3.63;;;22.70;76.30;;;;;;5104356;28;20139;-85
2023/05/28 12:10:26;;;;;;;6.70;3.17;;;22.80;75.90;;;;;;5110809;28;20024;-85
2023/05/28 12:12:56;;;;;;;5.43;3.03;;;22.80;75.60;;;;;;5113818;28;20039;-86
2023/05/28 12:15:28;;;;;;;7.30;3.60;;;22.80;75.40;;;;;;5103619;28;20012;-85
2023/05/28 12:17:57;;;;;;;6.55;3.33;;;22.70;74.30;;;;;;5103387;28;20009;-87
2023/05/28 12:20:23;;;;;;;9.73;3.70;;;22.80;75.10;;;;;;5102919;28;20047;-85
2023/05/28 12:23:07;;;;;;;7.13;3.58;;;22.80;74.60;;;;;;5119699;28;20019;-87
2023/05/28 12:25:46;;;;;;;8.38;3.90;;;22.90;75.10;;;;;;5108298;28;20035;-87
2023/05/28 12:28:22;;;;;;;7.97;4.23;;;22.90;74.80;;;;;;5079160;28;20494;-87
2023/05/28 12:30:50;;;;;;;6.30;3.65;;;22.90;74.00;;;;;;5078142;28;20273;-87
2023/05/28 12:33:16;;;;;;;8.38;3.88;;;22.90;73.70;;;;;;5077703;28;20111;-87
2023/05/28 12:35:42;;;;;;;7.43;3.83;;;22.90;73.90;;;;;;5077564;28;20040;-86
2023/05/28 12:38:08;;;;;;;5.75;3.30;;;22.90;74.20;;;;;;5090795;28;20473;-87